Terminal Aerodrome Forecast
Issued by NWS Jackson, KY

Home | Current Version | Previous Version | Text Only | Print | Product List | Glossary On
Versions: 1 2 3 4 5 6 7 8 9 10 11 12 13 14 15 16 17 18
528
FTUS43 KJKL 092205 AAA
TAFJKL
TAF AMD
KJKL 092205Z 0922/1018 27009KT 3SM -SHSN BR BKN025 OVC045
     FM100300 28009KT P6SM BKN025 OVC035
     FM101000 26006KT P6SM SCT045=

USA.gov is the U.S. government's official web portal to all federal, state and local government web resources and services.